Time;durP1;ratioP1;P1;durP2;ratioP2;P2;SDS_P1;SDS_P2;PMS_P1;PMS_P2;Temp;Humidity;BMP_temperature;BMP_pressure;BME280_temperature;BME280_humidity;BME280_pressure;Samples;Min_cycle;Max_cycle;Signal;HPM_P1;HPM_P2
2023/02/07 00:01:11;;;;;;;0.60;0.40;;;-2.20;76.60;;;;;;5007159;28;20197;-73
2023/02/07 00:03:37;;;;;;;0.67;0.57;;;-2.20;76.30;;;;;;5005452;28;20596;-72
2023/02/07 00:06:15;;;;;;;0.40;0.40;;;-2.20;76.50;;;;;;5007041;28;20247;-72
2023/02/07 00:08:41;;;;;;;0.30;0.30;;;-2.20;76.80;;;;;;5021860;28;20268;-72
2023/02/07 00:11:09;;;;;;;0.40;0.40;;;-2.20;76.80;;;;;;5007745;28;20177;-72
2023/02/07 00:13:36;;;;;;;0.60;0.60;;;-2.20;76.80;;;;;;5009669;28;20204;-73
2023/02/07 00:16:03;;;;;;;0.80;0.30;;;-2.20;77.00;;;;;;5020502;28;20206;-73
2023/02/07 00:18:29;;;;;;;0.70;0.70;;;-2.10;76.70;;;;;;5010337;28;20218;-72
2023/02/07 00:21:10;;;;;;;0.33;0.33;;;-2.20;76.80;;;;;;5011612;28;20298;-73
2023/02/07 00:23:37;;;;;;;0.33;0.33;;;-2.20;76.70;;;;;;5004463;28;20213;-72
2023/02/07 00:26:04;;;;;;;0.30;0.30;;;-2.10;76.70;;;;;;5014305;28;20291;-72
2023/02/07 00:28:30;;;;;;;1.23;0.90;;;-2.10;76.70;;;;;;5006512;28;20599;-73
2023/02/07 00:31:29;;;;;;;0.33;0.33;;;-2.10;76.90;;;;;;5008901;28;20185;-72
2023/02/07 00:33:59;;;;;;;0.73;0.73;;;-2.20;76.90;;;;;;4971858;28;20773;-73
2023/02/07 00:36:26;;;;;;;0.30;0.30;;;-2.20;77.20;;;;;;4972910;28;21034;-73
2023/02/07 00:38:56;;;;;;;5.63;0.70;;;-2.20;77.30;;;;;;4990941;28;20282;-73
2023/02/07 00:41:22;;;;;;;0.20;0.20;;;-2.20;77.10;;;;;;4988736;28;20188;-72
2023/02/07 00:43:48;;;;;;;0.43;0.43;;;-2.20;77.00;;;;;;4984325;28;20272;-73
2023/02/07 00:46:14;;;;;;;0.33;0.33;;;-2.20;76.80;;;;;;4967517;28;20201;-73
2023/02/07 00:48:40;;;;;;;0.40;0.40;;;-2.20;77.10;;;;;;4993543;28;20653;-73
2023/02/07 00:51:06;;;;;;;0.50;0.50;;;-2.20;76.90;;;;;;4989017;28;20194;-72
2023/02/07 00:53:32;;;;;;;0.43;0.43;;;-2.20;76.80;;;;;;4982777;28;20182;-73
2023/02/07 00:55:57;;;;;;;0.27;0.27;;;-2.10;76.90;;;;;;4988886;28;20189;-73
2023/02/07 00:58:24;;;;;;;0.40;0.40;;;-2.10;77.00;;;;;;4983390;28;20186;-72
2023/02/07 01:00:50;;;;;;;0.40;0.40;;;-2.20;77.00;;;;;;4991325;28;20197;-73
2023/02/07 01:03:16;;;;;;;0.30;0.30;;;-2.20;77.10;;;;;;4998882;28;20258;-73
2023/02/07 01:05:42;;;;;;;0.43;0.43;;;-2.10;77.20;;;;;;4973908;28;20271;-73
2023/02/07 01:08:08;;;;;;;0.13;0.13;;;-2.20;77.10;;;;;;4987460;28;20181;-73
2023/02/07 01:10:34;;;;;;;0.20;0.20;;;-2.20;77.00;;;;;;4997784;28;20197;-73
2023/02/07 01:13:00;;;;;;;0.57;0.57;;;-2.10;77.00;;;;;;5005929;28;20284;-73
2023/02/07 01:15:26;;;;;;;0.20;0.20;;;-2.20;77.20;;;;;;5010096;28;20650;-73
2023/02/07 01:17:51;;;;;;;0.60;0.60;;;-2.20;77.60;;;;;;5009154;28;20262;-73
2023/02/07 01:20:17;;;;;;;0.50;0.37;;;-2.20;77.50;;;;;;5009389;28;20189;-73
2023/02/07 01:22:43;;;;;;;0.50;0.43;;;-2.20;77.50;;;;;;5007071;28;20188;-73
2023/02/07 01:25:09;;;;;;;0.37;0.37;;;-2.20;77.50;;;;;;5008402;28;20231;-73
2023/02/07 01:27:35;;;;;;;0.57;0.57;;;-2.20;77.60;;;;;;5010675;28;20197;-74
2023/02/07 01:30:02;;;;;;;0.47;0.47;;;-2.20;77.50;;;;;;5009839;28;20196;-73
2023/02/07 01:32:27;;;;;;;0.80;0.80;;;-2.30;77.80;;;;;;5011503;28;20177;-73
2023/02/07 01:34:53;;;;;;;0.30;0.30;;;-2.30;77.90;;;;;;5008375;28;20217;-73
2023/02/07 01:37:18;;;;;;;0.33;0.33;;;-2.20;77.80;;;;;;5004808;28;20671;-72
2023/02/07 01:39:46;;;;;;;0.37;0.37;;;-2.30;78.10;;;;;;5005219;28;20212;-73
2023/02/07 01:42:16;;;;;;;0.33;0.33;;;-2.30;77.90;;;;;;5005122;28;20621;-73
2023/02/07 01:44:41;;;;;;;0.43;0.43;;;-2.30;78.00;;;;;;5004950;28;20621;-73
2023/02/07 01:47:14;;;;;;;0.30;0.30;;;-2.30;78.20;;;;;;5005033;28;20192;-73
2023/02/07 01:49:40;;;;;;;0.67;0.67;;;-2.30;78.30;;;;;;5005328;28;20208;-72
2023/02/07 01:52:12;;;;;;;0.10;0.10;;;-2.30;78.10;;;;;;5004992;28;20262;-73
2023/02/07 01:54:39;;;;;;;0.50;0.50;;;-2.40;78.30;;;;;;5005263;28;20181;-74
2023/02/07 01:57:11;;;;;;;0.73;0.70;;;-2.40;78.30;;;;;;5004589;28;20720;-73
2023/02/07 01:59:42;;;;;;;0.37;0.37;;;-2.40;78.50;;;;;;5005383;28;20262;-73
2023/02/07 02:02:10;;;;;;;0.50;0.50;;;-2.40;78.50;;;;;;5003667;28;20193;-73
2023/02/07 02:04:37;;;;;;;0.70;0.70;;;-2.40;78.40;;;;;;5015852;28;21029;-73
2023/02/07 02:07:06;;;;;;;0.20;0.20;;;-2.40;78.40;;;;;;5003230;28;20200;-73
2023/02/07 02:09:32;;;;;;;0.40;0.40;;;-2.40;78.40;;;;;;5002605;28;20196;-73
2023/02/07 02:12:20;;;;;;;0.53;0.53;;;-2.30;78.30;;;;;;5000100;28;20565;-73
2023/02/07 02:14:54;;;;;;;0.50;0.50;;;-2.30;78.00;;;;;;5003087;28;20177;-73
2023/02/07 02:17:44;;;;;;;0.23;0.23;;;-2.30;77.80;;;;;;5005288;28;20183;-73
2023/02/07 02:20:48;;;;;;;0.10;0.10;;;-2.40;78.10;;;;;;5014997;28;20663;-73
2023/02/07 02:24:02;;;;;;;0.20;0.20;;;-2.40;78.10;;;;;;5019618;28;20181;-74
2023/02/07 02:26:42;;;;;;;0.13;0.13;;;-2.40;77.70;;;;;;4942839;28;20711;-73
2023/02/07 02:29:17;;;;;;;0.13;0.13;;;-2.50;77.20;;;;;;4949062;28;20194;-72
2023/02/07 02:32:09;;;;;;;0.60;0.60;;;-2.50;77.40;;;;;;4943569;29;20207;-73
2023/02/07 02:34:45;;;;;;;0.17;0.17;;;-2.60;77.70;;;;;;4942742;29;20191;-73
2023/02/07 02:37:36;;;;;;;1.20;0.87;;;-2.60;77.90;;;;;;4942544;29;20199;-73
2023/02/07 02:40:05;;;;;;;0.30;0.30;;;-2.60;78.20;;;;;;4942243;29;20237;-73
2023/02/07 02:42:53;;;;;;;0.40;0.40;;;-2.60;78.60;;;;;;4942618;29;20191;-73
2023/02/07 02:45:37;;;;;;;0.80;0.47;;;-2.60;78.70;;;;;;4904697;29;20226;-73
2023/02/07 02:48:06;;;;;;;0.20;0.20;;;-2.70;78.90;;;;;;4904737;29;20232;-73
2023/02/07 02:50:34;;;;;;;0.37;0.37;;;-2.60;79.10;;;;;;4904845;29;20193;-73
2023/02/07 02:52:59;;;;;;;0.53;0.40;;;-2.60;79.20;;;;;;4904861;29;20244;-73
2023/02/07 02:55:48;;;;;;;0.23;0.23;;;-2.60;79.20;;;;;;4904566;29;20714;-74
2023/02/07 02:58:32;;;;;;;0.77;0.20;;;-2.60;79.30;;;;;;4904545;29;20184;-73
2023/02/07 03:01:17;;;;;;;1.20;0.30;;;-2.60;79.20;;;;;;4904278;29;20239;-74
2023/02/07 03:04:04;;;;;;;0.20;0.20;;;-2.50;78.90;;;;;;4945954;28;20340;-72
2023/02/07 03:06:44;;;;;;;0.53;0.53;;;-2.50;78.60;;;;;;4962637;28;20194;-73
2023/02/07 03:09:36;;;;;;;0.27;0.27;;;-2.50;78.30;;;;;;4953867;28;20710;-73
2023/02/07 03:12:13;;;;;;;0.47;0.47;;;-2.60;78.20;;;;;;4963187;28;20202;-72
2023/02/07 03:14:59;;;;;;;0.30;0.30;;;-2.60;78.00;;;;;;4962044;28;20571;-73
2023/02/07 03:17:31;;;;;;;0.30;0.30;;;-2.60;77.90;;;;;;4906001;29;20208;-74
2023/02/07 03:20:19;;;;;;;0.50;0.50;;;-2.60;78.00;;;;;;4895672;29;21007;-73
2023/02/07 03:22:47;;;;;;;0.23;0.23;;;-2.60;78.20;;;;;;4934671;28;20220;-74
2023/02/07 03:25:15;;;;;;;0.50;0.50;;;-2.60;78.50;;;;;;4966801;28;20225;-74
2023/02/07 03:27:43;;;;;;;0.30;0.30;;;-2.60;78.60;;;;;;4940065;28;20187;-73
2023/02/07 03:30:12;;;;;;;0.97;0.80;;;-2.60;78.50;;;;;;4972531;28;20194;-73
2023/02/07 03:32:42;;;;;;;0.53;0.53;;;-2.60;78.30;;;;;;4964998;28;20261;-73
2023/02/07 03:35:08;;;;;;;1.90;0.63;;;-2.60;78.20;;;;;;4979689;28;20359;-73
2023/02/07 03:37:58;;;;;;;0.47;0.47;;;-2.60;78.10;;;;;;4967826;28;20349;-73
2023/02/07 03:40:31;;;;;;;0.20;0.20;;;-2.50;78.00;;;;;;4957931;28;20211;-73
2023/02/07 03:43:23;;;;;;;0.30;0.30;;;-2.50;78.00;;;;;;4969481;28;20584;-73
2023/02/07 03:45:49;;;;;;;0.23;0.23;;;-2.50;77.80;;;;;;4952760;28;20222;-73
2023/02/07 03:48:14;;;;;;;0.47;0.47;;;-2.60;77.80;;;;;;4949655;28;20234;-73
2023/02/07 03:50:40;;;;;;;0.50;0.30;;;-2.60;77.80;;;;;;4964211;28;20244;-74
2023/02/07 03:53:06;;;;;;;0.57;0.43;;;-2.50;77.90;;;;;;4971680;28;20190;-73
2023/02/07 03:55:32;;;;;;;1.13;0.70;;;-2.60;77.90;;;;;;5010538;28;20284;-73
2023/02/07 03:57:58;;;;;;;1.80;0.43;;;-2.60;77.90;;;;;;5006532;28;20242;-73
2023/02/07 04:00:23;;;;;;;0.57;0.57;;;-2.60;78.10;;;;;;5004883;28;20239;-72
2023/02/07 04:02:49;;;;;;;0.30;0.30;;;-2.60;78.10;;;;;;5015294;28;20192;-73
2023/02/07 04:05:15;;;;;;;0.50;0.50;;;-2.60;78.30;;;;;;5007983;28;20242;-73
2023/02/07 04:07:41;;;;;;;0.40;0.37;;;-2.60;78.50;;;;;;5007549;28;20183;-72
2023/02/07 04:10:07;;;;;;;0.47;0.47;;;-2.50;78.00;;;;;;5006021;28;20692;-72
2023/02/07 04:12:33;;;;;;;0.40;0.40;;;-2.50;77.90;;;;;;5006963;28;20189;-74
2023/02/07 04:15:03;;;;;;;0.27;0.27;;;-2.50;77.80;;;;;;5007369;28;20189;-74
2023/02/07 04:17:29;;;;;;;0.10;0.10;;;-2.50;77.80;;;;;;5010908;28;20189;-73
2023/02/07 04:19:54;;;;;;;0.13;0.13;;;-2.50;77.80;;;;;;5008720;28;20983;-74
2023/02/07 04:22:20;;;;;;;0.20;0.20;;;-2.50;78.00;;;;;;5005489;28;20687;-73
2023/02/07 04:24:46;;;;;;;0.50;0.50;;;-2.50;78.10;;;;;;5005897;28;20240;-73
2023/02/07 04:27:12;;;;;;;0.70;0.70;;;-2.50;78.10;;;;;;5011347;28;20197;-73
2023/02/07 04:29:38;;;;;;;0.77;0.37;;;-2.50;78.20;;;;;;5011792;28;20181;-73
2023/02/07 04:32:04;;;;;;;0.40;0.40;;;-2.50;78.20;;;;;;5015264;28;20184;-74
2023/02/07 04:34:29;;;;;;;0.40;0.40;;;-2.50;78.20;;;;;;5017896;28;20188;-72
2023/02/07 04:36:55;;;;;;;0.30;0.30;;;-2.40;78.20;;;;;;5016749;28;20211;-73
2023/02/07 04:39:21;;;;;;;0.30;0.30;;;-2.40;77.90;;;;;;5005668;28;20181;-73
2023/02/07 04:41:46;;;;;;;0.47;0.47;;;-2.40;77.80;;;;;;5024250;28;20199;-73
2023/02/07 04:44:12;;;;;;;0.23;0.23;;;-2.40;77.50;;;;;;5005352;28;20201;-73
2023/02/07 04:46:38;;;;;;;0.30;0.30;;;-2.40;77.70;;;;;;5010732;28;20325;-72
2023/02/07 04:49:04;;;;;;;0.67;0.30;;;-2.40;77.20;;;;;;5000673;28;20186;-73
2023/02/07 04:51:30;;;;;;;2.43;0.53;;;-2.40;77.50;;;;;;5015165;28;20191;-72
2023/02/07 04:53:56;;;;;;;0.67;0.67;;;-2.40;77.30;;;;;;5003590;28;20224;-73
2023/02/07 04:56:22;;;;;;;0.40;0.40;;;-2.40;76.70;;;;;;5005472;28;20181;-72
2023/02/07 04:58:48;;;;;;;0.60;0.57;;;-2.40;77.10;;;;;;5005826;28;20201;-73
2023/02/07 05:01:14;;;;;;;0.53;0.53;;;-2.50;77.40;;;;;;5015382;28;20192;-73
2023/02/07 05:03:40;;;;;;;0.43;0.43;;;-2.50;77.60;;;;;;5011175;28;20235;-74
2023/02/07 05:06:05;;;;;;;0.40;0.40;;;-2.50;77.90;;;;;;5008979;28;20196;-73
2023/02/07 05:08:31;;;;;;;0.80;0.47;;;-2.50;78.20;;;;;;5004238;28;20199;-75
2023/02/07 05:10:57;;;;;;;0.70;0.70;;;-2.50;78.10;;;;;;5006257;28;20183;-79
2023/02/07 05:13:24;;;;;;;0.17;0.17;;;-2.50;78.30;;;;;;5006083;28;20296;-79
2023/02/07 05:15:50;;;;;;;1.63;0.60;;;-2.50;78.20;;;;;;5005900;28;21268;-76
2023/02/07 05:18:16;;;;;;;0.33;0.33;;;-2.50;78.20;;;;;;5009077;28;20199;-73
2023/02/07 05:20:41;;;;;;;0.53;0.53;;;-2.50;78.30;;;;;;5009605;28;20413;-73
2023/02/07 05:23:07;;;;;;;0.87;0.63;;;-2.50;78.30;;;;;;5009532;28;20284;-74
2023/02/07 05:25:33;;;;;;;0.60;0.60;;;-2.50;77.70;;;;;;5005563;28;20217;-73
2023/02/07 05:27:59;;;;;;;0.90;0.60;;;-2.50;77.80;;;;;;5006988;28;20196;-74
2023/02/07 05:30:24;;;;;;;0.70;0.70;;;-2.50;78.00;;;;;;5010090;28;20184;-73
2023/02/07 05:33:05;;;;;;;0.90;0.90;;;-2.60;77.90;;;;;;5007363;28;20275;-73
2023/02/07 05:35:32;;;;;;;0.40;0.40;;;-2.60;77.60;;;;;;5007324;28;20185;-71
2023/02/07 05:37:58;;;;;;;0.87;0.87;;;-2.60;77.50;;;;;;5006446;28;20189;-71
2023/02/07 05:40:24;;;;;;;1.03;1.03;;;-2.60;77.50;;;;;;5011260;28;20179;-71
2023/02/07 05:42:50;;;;;;;0.90;0.90;;;-2.60;77.50;;;;;;5004698;28;20175;-70
2023/02/07 05:45:16;;;;;;;0.90;0.90;;;-2.60;77.60;;;;;;5003479;28;20891;-72
2023/02/07 05:47:41;;;;;;;1.00;1.00;;;-2.60;77.90;;;;;;5003943;28;20192;-71
2023/02/07 05:50:07;;;;;;;0.33;0.33;;;-2.70;78.60;;;;;;5002961;28;20189;-73
2023/02/07 05:52:33;;;;;;;0.77;0.77;;;-2.70;78.70;;;;;;5002717;28;20189;-73
2023/02/07 05:55:00;;;;;;;5.13;0.83;;;-2.70;78.70;;;;;;5005133;28;20233;-73
2023/02/07 05:57:26;;;;;;;1.33;1.33;;;-2.80;79.10;;;;;;5005520;28;20216;-76
2023/02/07 05:59:52;;;;;;;0.77;0.77;;;-2.80;79.00;;;;;;5003261;28;20630;-73
2023/02/07 06:02:18;;;;;;;0.80;0.80;;;-2.70;78.60;;;;;;5005081;28;20208;-72
2023/02/07 06:04:43;;;;;;;1.17;1.13;;;-2.70;78.20;;;;;;5004808;28;21028;-72
2023/02/07 06:07:09;;;;;;;1.13;1.03;;;-2.70;78.00;;;;;;5005453;28;20185;-73
2023/02/07 06:09:35;;;;;;;0.80;0.80;;;-2.70;78.00;;;;;;5005359;28;20212;-73
2023/02/07 06:12:00;;;;;;;1.47;1.47;;;-2.80;77.90;;;;;;5005584;28;20196;-73
2023/02/07 06:14:26;;;;;;;2.80;1.60;;;-2.80;77.90;;;;;;5005649;28;20185;-73
2023/02/07 06:16:52;;;;;;;1.20;1.20;;;-2.90;78.00;;;;;;5005011;28;20192;-73
2023/02/07 06:19:17;;;;;;;0.50;0.50;;;-2.90;78.30;;;;;;5004616;28;20717;-73
2023/02/07 06:21:43;;;;;;;0.57;0.57;;;-2.90;78.20;;;;;;5004975;28;20231;-73
2023/02/07 06:24:09;;;;;;;1.47;1.47;;;-2.90;78.20;;;;;;5004552;28;20248;-73
2023/02/07 06:26:35;;;;;;;0.73;0.73;;;-2.90;78.20;;;;;;5005168;28;20188;-73
2023/02/07 06:29:00;;;;;;;1.23;1.23;;;-2.90;78.30;;;;;;5004386;28;20205;-73
2023/02/07 06:31:26;;;;;;;0.50;0.50;;;-2.90;78.20;;;;;;5005361;28;20173;-73
2023/02/07 06:33:52;;;;;;;1.17;1.17;;;-3.00;78.30;;;;;;5005036;28;20189;-74
2023/02/07 06:36:18;;;;;;;1.07;0.57;;;-3.00;78.40;;;;;;5005956;28;20224;-74
2023/02/07 06:38:43;;;;;;;0.67;0.67;;;-3.00;78.40;;;;;;5005267;28;20177;-74
2023/02/07 06:41:10;;;;;;;1.20;1.10;;;-3.00;78.20;;;;;;4992203;28;20177;-73
2023/02/07 06:43:39;;;;;;;1.20;0.90;;;-3.00;78.10;;;;;;5002866;28;20592;-73
2023/02/07 06:46:06;;;;;;;0.67;0.67;;;-3.00;78.10;;;;;;4997411;28;20768;-73
2023/02/07 06:48:31;;;;;;;3.40;1.03;;;-3.10;78.70;;;;;;4999006;28;20773;-73
2023/02/07 06:50:57;;;;;;;1.53;1.27;;;-3.10;79.10;;;;;;5004589;28;20183;-73
2023/02/07 06:53:23;;;;;;;3.93;1.20;;;-3.00;78.60;;;;;;5003020;28;20193;-73
2023/02/07 06:55:49;;;;;;;1.43;1.37;;;-3.00;78.40;;;;;;5006616;28;20646;-74
2023/02/07 06:58:15;;;;;;;0.93;0.93;;;-2.90;78.60;;;;;;5008621;28;20185;-73
2023/02/07 07:00:41;;;;;;;1.07;1.07;;;-2.90;79.10;;;;;;5008751;28;20247;-74
2023/02/07 07:03:11;;;;;;;1.23;1.23;;;-2.90;78.40;;;;;;5008971;28;20982;-73
2023/02/07 07:05:37;;;;;;;1.60;1.27;;;-2.80;78.10;;;;;;5009121;28;20288;-74
2023/02/07 07:08:03;;;;;;;1.13;0.90;;;-2.70;77.90;;;;;;5008236;28;20207;-73
2023/02/07 07:10:28;;;;;;;1.10;1.03;;;-2.60;77.50;;;;;;5008311;28;20181;-74
2023/02/07 07:12:54;;;;;;;3.23;1.20;;;-2.60;78.00;;;;;;5008033;28;20177;-74
2023/02/07 07:15:19;;;;;;;2.67;1.10;;;-2.50;77.50;;;;;;4999754;28;20698;-73
2023/02/07 07:17:45;;;;;;;2.43;0.87;;;-2.50;77.20;;;;;;5003339;28;20181;-73
2023/02/07 07:20:11;;;;;;;1.60;1.57;;;-2.40;76.80;;;;;;5008509;28;20216;-73
2023/02/07 07:22:37;;;;;;;1.23;1.13;;;-2.40;76.80;;;;;;5006539;28;20550;-76
2023/02/07 07:25:03;;;;;;;2.03;1.50;;;-2.40;76.90;;;;;;5006763;28;20219;-73
2023/02/07 07:27:29;;;;;;;0.60;0.60;;;-2.30;76.80;;;;;;5007797;28;20629;-74
2023/02/07 07:29:54;;;;;;;0.80;0.80;;;-2.30;77.10;;;;;;5039547;28;20186;-73
2023/02/07 07:32:20;;;;;;;2.63;0.80;;;-2.20;76.80;;;;;;5007815;28;20208;-73
2023/02/07 07:34:48;;;;;;;1.30;0.63;;;-2.10;76.50;;;;;;5008343;28;20213;-73
2023/02/07 07:37:14;;;;;;;1.10;1.10;;;-2.10;76.30;;;;;;5007174;28;20227;-73
2023/02/07 07:39:40;;;;;;;1.50;1.50;;;-2.00;76.60;;;;;;5008156;28;20272;-73
2023/02/07 07:42:05;;;;;;;1.20;1.20;;;-2.00;76.50;;;;;;5022897;28;20307;-73
2023/02/07 07:44:31;;;;;;;1.17;1.17;;;-1.90;76.20;;;;;;5007934;28;20213;-73
2023/02/07 07:46:57;;;;;;;0.97;0.97;;;-1.90;76.20;;;;;;5007813;28;20180;-73
2023/02/07 07:49:23;;;;;;;1.73;1.50;;;-1.90;76.10;;;;;;5003628;28;20181;-73
2023/02/07 07:51:49;;;;;;;1.50;1.43;;;-1.90;76.10;;;;;;5002758;28;20263;-74
2023/02/07 07:54:14;;;;;;;0.90;0.90;;;-1.80;76.20;;;;;;5007468;28;20524;-73
2023/02/07 07:56:40;;;;;;;1.10;1.07;;;-1.60;76.30;;;;;;5007503;28;20231;-74
2023/02/07 07:59:06;;;;;;;2.03;0.90;;;-1.40;75.90;;;;;;5007619;28;20251;-74
2023/02/07 08:01:32;;;;;;;2.23;1.13;;;-1.10;75.00;;;;;;5007640;28;20181;-74
2023/02/07 08:03:58;;;;;;;0.87;0.77;;;-0.70;74.40;;;;;;5007625;28;20192;-74
2023/02/07 08:06:23;;;;;;;1.23;1.13;;;-0.30;73.10;;;;;;5008043;28;20188;-72
2023/02/07 08:08:49;;;;;;;0.93;0.93;;;0.20;72.40;;;;;;5007758;28;20192;-72
2023/02/07 08:11:15;;;;;;;2.77;1.63;;;0.90;73.20;;;;;;5006743;28;20192;-72
2023/02/07 08:13:40;;;;;;;3.40;2.20;;;1.80;72.60;;;;;;4988014;28;20209;-72
2023/02/07 08:16:07;;;;;;;5.17;1.80;;;2.80;69.30;;;;;;5001244;28;20185;-72
2023/02/07 08:18:34;;;;;;;3.80;2.20;;;3.50;66.40;;;;;;5000083;28;20671;-73
2023/02/07 08:21:00;;;;;;;5.20;1.87;;;3.80;65.20;;;;;;5000731;28;20195;-72
2023/02/07 08:23:25;;;;;;;1.87;1.87;;;4.20;64.70;;;;;;4994729;28;20176;-72
2023/02/07 08:25:51;;;;;;;2.33;2.20;;;4.50;63.90;;;;;;5006455;28;20220;-72
2023/02/07 08:28:17;;;;;;;4.77;2.30;;;4.70;62.70;;;;;;5006636;28;20188;-72
2023/02/07 08:30:46;;;;;;;3.43;2.87;;;4.60;61.70;;;;;;4993764;28;20173;-72
2023/02/07 08:33:12;;;;;;;2.83;2.60;;;4.20;61.70;;;;;;5007199;28;20204;-69
2023/02/07 08:35:38;;;;;;;3.47;3.27;;;3.90;62.40;;;;;;5006493;28;20181;-72
2023/02/07 08:38:04;;;;;;;2.90;2.70;;;3.60;63.10;;;;;;5006789;28;20216;-72
2023/02/07 08:40:30;;;;;;;3.50;2.63;;;3.30;63.50;;;;;;5006691;28;20283;-72
2023/02/07 08:42:56;;;;;;;3.20;2.90;;;2.70;64.20;;;;;;5006620;28;20662;-72
2023/02/07 08:45:22;;;;;;;3.07;2.53;;;2.60;65.20;;;;;;5006264;28;20216;-72
2023/02/07 08:47:47;;;;;;;1.57;1.50;;;2.60;65.30;;;;;;5006597;28;20386;-72
2023/02/07 08:50:14;;;;;;;3.93;2.17;;;2.90;65.90;;;;;;5006863;28;20189;-73
2023/02/07 08:52:40;;;;;;;2.30;2.20;;;3.10;64.60;;;;;;5006481;28;20180;-72
2023/02/07 08:55:07;;;;;;;2.53;2.07;;;3.50;65.30;;;;;;5006404;28;20250;-72
2023/02/07 08:57:33;;;;;;;3.10;2.60;;;4.20;65.30;;;;;;5007114;28;20603;-73
2023/02/07 08:59:58;;;;;;;3.10;2.90;;;4.70;62.80;;;;;;5005425;28;20733;-73
2023/02/07 09:02:25;;;;;;;3.57;3.20;;;4.70;61.60;;;;;;5006780;28;20184;-73
2023/02/07 09:04:50;;;;;;;3.57;3.37;;;4.30;61.10;;;;;;5006281;28;20201;-73
2023/02/07 09:07:17;;;;;;;3.30;2.80;;;4.00;61.90;;;;;;5006349;28;20196;-73
2023/02/07 09:09:43;;;;;;;4.23;3.40;;;4.10;62.70;;;;;;5006375;28;20177;-73
2023/02/07 09:12:09;;;;;;;2.67;2.47;;;4.40;62.40;;;;;;5006200;28;20260;-73
2023/02/07 09:14:36;;;;;;;3.47;2.90;;;4.80;62.70;;;;;;5005961;28;20181;-73
2023/02/07 09:17:02;;;;;;;3.40;3.10;;;5.30;61.90;;;;;;5005283;28;20177;-73
2023/02/07 09:19:28;;;;;;;2.93;2.70;;;5.80;61.70;;;;;;5005580;28;20180;-73
2023/02/07 09:21:53;;;;;;;4.10;2.50;;;6.30;60.70;;;;;;5006399;28;20177;-73
2023/02/07 09:24:19;;;;;;;3.60;3.00;;;6.30;56.70;;;;;;5004387;28;20201;-73
2023/02/07 09:26:45;;;;;;;6.00;2.43;;;6.00;57.90;;;;;;5004281;28;20196;-72
2023/02/07 09:29:13;;;;;;;5.00;2.83;;;5.80;58.70;;;;;;5011114;28;20181;-72
2023/02/07 09:31:39;;;;;;;3.13;2.70;;;5.80;58.70;;;;;;5006480;28;20235;-72
2023/02/07 09:34:05;;;;;;;3.10;2.87;;;6.20;60.30;;;;;;5008966;28;20189;-73
2023/02/07 09:36:31;;;;;;;3.70;2.50;;;6.80;58.90;;;;;;5005318;28;20448;-72
2023/02/07 09:38:58;;;;;;;3.83;2.97;;;7.00;56.60;;;;;;5010706;28;20225;-72
2023/02/07 09:41:32;;;;;;;3.90;3.07;;;7.10;57.30;;;;;;5008000;28;20231;-72
2023/02/07 09:44:24;;;;;;;2.97;2.67;;;7.30;56.80;;;;;;5006993;28;20216;-72
2023/02/07 09:47:32;;;;;;;4.17;2.80;;;7.30;55.90;;;;;;5009397;28;20274;-71
2023/02/07 09:50:04;;;;;;;4.37;3.03;;;7.10;55.70;;;;;;4964194;28;20352;-71
2023/02/07 09:52:49;;;;;;;5.97;3.37;;;6.70;56.60;;;;;;4965153;28;20198;-70
2023/02/07 09:55:24;;;;;;;4.83;2.93;;;6.10;56.90;;;;;;4962523;28;20724;-71
2023/02/07 09:58:26;;;;;;;5.07;2.90;;;5.60;57.30;;;;;;4966518;28;20212;-71
2023/02/07 10:01:22;;;;;;;2.43;2.07;;;5.40;58.00;;;;;;4904799;29;20445;-72
2023/02/07 10:03:56;;;;;;;2.87;2.37;;;5.50;58.20;;;;;;4903652;29;20672;-71
2023/02/07 10:06:26;;;;;;;2.10;1.90;;;5.60;58.30;;;;;;4903660;29;20312;-71
2023/02/07 10:08:55;;;;;;;3.90;3.47;;;5.60;58.10;;;;;;4890296;29;20216;-71
2023/02/07 10:11:57;;;;;;;5.20;3.40;;;5.50;59.40;;;;;;4903242;29;20304;-72
2023/02/07 10:14:57;;;;;;;5.40;3.30;;;5.00;60.20;;;;;;4903249;29;20200;-72
2023/02/07 10:17:26;;;;;;;3.67;2.57;;;4.30;60.70;;;;;;4905609;29;20645;-72
2023/02/07 10:20:05;;;;;;;3.10;2.80;;;3.70;61.90;;;;;;4906414;28;20234;-71
2023/02/07 10:23:07;;;;;;;3.57;3.03;;;3.30;62.90;;;;;;4960838;28;20193;-72
2023/02/07 10:25:42;;;;;;;4.37;2.23;;;2.80;64.30;;;;;;4954802;28;20221;-74
2023/02/07 10:28:14;;;;;;;3.60;2.83;;;2.40;65.00;;;;;;4959746;28;20247;-76
2023/02/07 10:30:51;;;;;;;2.43;2.33;;;2.10;65.30;;;;;;4957551;28;20198;-75
2023/02/07 10:33:20;;;;;;;2.03;1.93;;;1.90;65.40;;;;;;4960575;28;20245;-76
2023/02/07 10:35:47;;;;;;;2.43;2.23;;;1.70;65.20;;;;;;4962763;28;20185;-78
2023/02/07 10:38:31;;;;;;;3.60;1.90;;;1.60;66.00;;;;;;4993894;28;20191;-75
2023/02/07 10:41:37;;;;;;;4.13;1.90;;;1.90;66.50;;;;;;5001800;28;20263;-74
2023/02/07 10:44:11;;;;;;;1.77;1.67;;;2.50;66.10;;;;;;4996397;28;20212;-73
2023/02/07 10:46:39;;;;;;;3.77;2.20;;;2.90;65.40;;;;;;5003071;28;20667;-73
2023/02/07 10:49:05;;;;;;;3.17;2.00;;;3.20;65.00;;;;;;5003991;28;20262;-74
2023/02/07 10:51:44;;;;;;;3.20;2.40;;;3.30;65.10;;;;;;5000733;28;20173;-73
2023/02/07 10:54:23;;;;;;;2.40;1.93;;;3.40;64.70;;;;;;5000625;28;20185;-73
2023/02/07 10:57:00;;;;;;;2.83;2.10;;;3.40;65.00;;;;;;5001128;28;20239;-74
2023/02/07 10:59:49;;;;;;;2.53;2.33;;;3.40;64.20;;;;;;4999406;28;20685;-72
2023/02/07 11:02:30;;;;;;;2.60;2.33;;;3.70;64.10;;;;;;5001773;28;20630;-71
2023/02/07 11:05:24;;;;;;;2.07;1.97;;;4.10;61.90;;;;;;5011391;28;20235;-72
2023/02/07 11:07:58;;;;;;;3.50;2.47;;;4.50;61.70;;;;;;4977416;28;20900;-72
2023/02/07 11:10:35;;;;;;;2.90;2.70;;;4.40;60.60;;;;;;4963491;28;20292;-72
2023/02/07 11:13:03;;;;;;;2.13;2.03;;;4.70;61.40;;;;;;4977624;28;20376;-72
2023/02/07 11:16:06;;;;;;;3.03;2.73;;;5.10;60.70;;;;;;4976788;28;20248;-71
2023/02/07 11:18:40;;;;;;;2.93;2.73;;;5.30;59.60;;;;;;4978721;28;20296;-71
2023/02/07 11:21:30;;;;;;;2.40;2.23;;;5.30;58.60;;;;;;4980021;28;20300;-72
2023/02/07 11:24:28;;;;;;;2.97;2.47;;;5.20;58.50;;;;;;4977237;28;20726;-72
2023/02/07 11:27:01;;;;;;;2.23;2.13;;;4.50;58.10;;;;;;4960902;28;20251;-73
2023/02/07 11:29:29;;;;;;;2.47;2.33;;;4.10;59.50;;;;;;4976164;28;20357;-73
2023/02/07 11:31:58;;;;;;;6.50;2.47;;;4.10;60.50;;;;;;4979656;28;20818;-73
2023/02/07 11:34:50;;;;;;;3.00;2.37;;;4.50;59.70;;;;;;4979917;28;20193;-73
2023/02/07 11:37:21;;;;;;;2.57;1.83;;;4.70;57.80;;;;;;4978070;28;20182;-73
2023/02/07 11:39:48;;;;;;;2.53;2.33;;;4.70;58.40;;;;;;4979834;28;20201;-72
2023/02/07 11:42:19;;;;;;;2.37;2.20;;;4.70;58.70;;;;;;4981165;28;20283;-73
2023/02/07 11:44:47;;;;;;;2.33;2.13;;;4.70;58.90;;;;;;4992179;28;20302;-74
2023/02/07 11:47:24;;;;;;;2.57;2.33;;;4.50;59.10;;;;;;5019215;28;20193;-73
2023/02/07 11:49:57;;;;;;;1.77;1.60;;;4.20;59.00;;;;;;5006188;28;20181;-73
2023/02/07 11:52:23;;;;;;;1.73;1.63;;;3.90;59.90;;;;;;5005965;28;20229;-72
2023/02/07 11:55:01;;;;;;;2.37;2.23;;;3.80;60.30;;;;;;5005383;28;20189;-72
2023/02/07 11:57:32;;;;;;;3.73;2.10;;;3.70;60.70;;;;;;5004045;28;20268;-72
2023/02/07 12:00:16;;;;;;;2.53;1.97;;;3.40;60.10;;;;;;5004134;28;20286;-72
2023/02/07 12:02:50;;;;;;;2.23;1.50;;;3.20;60.80;;;;;;5003310;28;20196;-72
2023/02/07 12:05:25;;;;;;;1.60;1.60;;;3.00;61.60;;;;;;5006297;28;20251;-72
2023/02/07 12:07:56;;;;;;;2.30;2.13;;;3.10;61.40;;;;;;5006305;28;20185;-73
2023/02/07 12:10:30;;;;;;;2.30;2.00;;;3.10;61.00;;;;;;5017339;28;20193;-72
2023/02/07 12:13:34;;;;;;;2.67;1.80;;;3.00;61.30;;;;;;5005962;28;20626;-72
2023/02/07 12:16:25;;;;;;;1.13;1.07;;;3.00;61.60;;;;;;4990975;28;20233;-72
2023/02/07 12:19:09;;;;;;;2.67;2.43;;;3.00;62.00;;;;;;4945465;28;20214;-72
2023/02/07 12:22:04;;;;;;;2.90;2.37;;;3.10;62.00;;;;;;4942142;28;20285;-72
2023/02/07 12:24:44;;;;;;;3.23;2.47;;;3.10;62.10;;;;;;4957238;28;20240;-72
2023/02/07 12:27:18;;;;;;;1.93;1.83;;;3.00;62.40;;;;;;4945530;28;20190;-72
2023/02/07 12:30:05;;;;;;;1.80;1.70;;;3.00;62.10;;;;;;4947360;28;20191;-72
2023/02/07 12:33:19;;;;;;;1.77;1.67;;;3.10;61.80;;;;;;4938768;29;20217;-73
2023/02/07 12:36:05;;;;;;;1.30;1.30;;;3.50;61.70;;;;;;4927142;29;20275;-73
2023/02/07 12:38:45;;;;;;;2.80;1.83;;;4.10;61.50;;;;;;4926774;29;20199;-73
2023/02/07 12:41:33;;;;;;;3.10;2.27;;;4.60;59.20;;;;;;4922991;29;20278;-73
2023/02/07 12:44:22;;;;;;;2.27;2.17;;;4.90;59.10;;;;;;4924537;29;20294;-73
2023/02/07 12:47:00;;;;;;;2.00;1.87;;;5.10;58.80;;;;;;4923973;29;20196;-72
2023/02/07 12:49:34;;;;;;;3.47;2.90;;;5.30;58.80;;;;;;4924798;29;20214;-72
2023/02/07 12:52:21;;;;;;;7.43;3.43;;;5.40;58.80;;;;;;4939651;28;20900;-72
2023/02/07 12:55:19;;;;;;;4.60;2.47;;;5.40;58.20;;;;;;4944173;28;20199;-72
2023/02/07 12:58:13;;;;;;;3.20;2.67;;;5.20;58.60;;;;;;4944354;28;20194;-72
2023/02/07 13:00:51;;;;;;;3.03;2.73;;;5.00;59.10;;;;;;4969199;28;20249;-73
2023/02/07 13:03:44;;;;;;;4.27;2.73;;;5.00;58.90;;;;;;4973045;28;20202;-73
2023/02/07 13:06:40;;;;;;;4.10;3.10;;;4.90;58.80;;;;;;4963714;28;20334;-73
2023/02/07 13:09:11;;;;;;;2.97;2.77;;;4.80;59.30;;;;;;4974920;28;20198;-74
2023/02/07 13:11:51;;;;;;;2.83;2.63;;;5.10;59.70;;;;;;5005075;28;20220;-72
2023/02/07 13:14:29;;;;;;;4.20;3.23;;;5.20;59.20;;;;;;5009235;28;20689;-71